createdAt,value
2022-09-20T00:01:10.554Z,12.00
2022-09-20T00:03:40.406Z,11.71
2022-09-20T00:06:10.138Z,11.59
2022-09-20T00:08:37.339Z,11.62
2022-09-20T00:11:14.717Z,11.63
2022-09-20T00:13:43.836Z,11.52
2022-09-20T00:16:14.422Z,11.38
2022-09-20T00:18:42.195Z,11.50
2022-09-20T00:21:17.138Z,11.60
2022-09-20T00:23:44.451Z,11.69
2022-09-20T00:26:12.185Z,11.60
2022-09-20T00:28:39.700Z,11.65
2022-09-20T00:31:08.158Z,11.73
2022-09-20T00:33:53.720Z,11.79
2022-09-20T00:36:21.096Z,11.80
2022-09-20T00:38:48.209Z,11.94
2022-09-20T00:41:15.550Z,12.01
2022-09-20T00:43:47.341Z,12.09
2022-09-20T00:46:20.463Z,12.10
2022-09-20T00:48:49.105Z,12.17
2022-09-20T00:51:21.362Z,12.12
2022-09-20T00:53:50.999Z,12.15
2022-09-20T00:56:23.936Z,12.16
2022-09-20T00:58:59.522Z,12.15
2022-09-20T01:01:26.773Z,12.21
2022-09-20T01:03:54.723Z,12.22
2022-09-20T01:06:21.815Z,12.16
2022-09-20T01:08:51.838Z,12.25
2022-09-20T01:11:19.054Z,11.89
2022-09-20T01:13:46.144Z,11.95
2022-09-20T01:16:16.158Z,11.86
2022-09-20T01:18:44.847Z,11.90
2022-09-20T01:21:14.234Z,12.06
2022-09-20T01:23:43.874Z,12.14
2022-09-20T01:26:10.784Z,12.24
2022-09-20T01:28:39.522Z,12.13
2022-09-20T01:31:24.103Z,12.17
2022-09-20T01:34:07.788Z,12.12
2022-09-20T01:36:44.538Z,12.08
2022-09-20T01:39:36.893Z,11.93
2022-09-20T01:42:10.306Z,11.85
2022-09-20T01:45:03.686Z,11.90
2022-09-20T01:47:46.624Z,11.88
2022-09-20T01:50:19.728Z,11.85
2022-09-20T01:53:15.825Z,11.88
2022-09-20T01:56:12.857Z,11.82
2022-09-20T01:59:19.465Z,11.82
2022-09-20T02:01:48.016Z,11.80
2022-09-20T02:04:16.606Z,11.76
2022-09-20T02:07:19.099Z,11.90
2022-09-20T02:10:03.371Z,11.88
2022-09-20T02:12:54.381Z,11.98
2022-09-20T02:15:51.743Z,11.95
2022-09-20T02:18:45.184Z,11.94
2022-09-20T02:21:43.395Z,11.96
2022-09-20T02:24:37.121Z,12.05
2022-09-20T02:27:13.327Z,12.04
2022-09-20T02:29:53.157Z,12.06
2022-09-20T02:32:35.466Z,12.07
2022-09-20T02:35:27.487Z,12.08
2022-09-20T02:38:19.243Z,12.13
2022-09-20T02:40:52.185Z,12.24
2022-09-20T02:43:19.320Z,12.28
2022-09-20T02:46:29.094Z,12.35
2022-09-20T02:49:07.188Z,12.32
2022-09-20T02:51:46.539Z,12.29
2022-09-20T02:54:32.283Z,12.20
2022-09-20T02:57:18.307Z,12.11
2022-09-20T02:59:53.553Z,12.04
2022-09-20T03:02:40.676Z,11.86
2022-09-20T03:05:19.183Z,11.77
2022-09-20T03:08:21.820Z,11.80
2022-09-20T03:11:02.456Z,11.85
2022-09-20T03:13:47.716Z,11.78
2022-09-20T03:16:32.408Z,11.68
2022-09-20T03:19:24.470Z,11.78
2022-09-20T03:21:54.496Z,11.85
2022-09-20T03:24:44.085Z,11.86
2022-09-20T03:27:14.077Z,11.85
2022-09-20T03:29:47.419Z,11.96
2022-09-20T03:32:42.318Z,11.88
2022-09-20T03:35:27.759Z,11.89
2022-09-20T03:38:14.566Z,11.78
2022-09-20T03:40:53.047Z,11.82
2022-09-20T03:43:56.849Z,11.82
2022-09-20T03:46:35.476Z,11.84
2022-09-20T03:49:33.308Z,11.78
2022-09-20T03:52:15.966Z,11.85
2022-09-20T03:54:54.960Z,11.79
2022-09-20T03:57:39.088Z,11.66
2022-09-20T04:00:21.163Z,11.68
2022-09-20T04:03:12.356Z,11.74
2022-09-20T04:05:58.227Z,11.79
2022-09-20T04:08:46.636Z,11.82
2022-09-20T04:11:40.960Z,11.88
2022-09-20T04:14:31.218Z,11.89
2022-09-20T04:17:15.978Z,11.83
2022-09-20T04:20:17.113Z,11.92
2022-09-20T04:22:47.035Z,11.97
2022-09-20T04:25:30.272Z,12.00
2022-09-20T04:28:03.263Z,12.06
2022-09-20T04:30:37.681Z,12.07
2022-09-20T04:33:13.958Z,12.14
2022-09-20T04:36:30.555Z,12.08
2022-09-20T04:39:42.538Z,12.20
2022-09-20T04:42:09.573Z,12.21
2022-09-20T04:45:25.248Z,12.26
2022-09-20T04:47:58.451Z,12.24
2022-09-20T04:50:46.856Z,12.23
2022-09-20T04:53:38.832Z,12.08
2022-09-20T04:56:27.808Z,12.19
2022-09-20T04:59:36.065Z,12.26
2022-09-20T05:02:15.427Z,12.26
2022-09-20T05:05:04.407Z,12.26
2022-09-20T05:08:09.771Z,12.05
2022-09-20T05:11:14.535Z,12.11
2022-09-20T05:14:13.048Z,12.16
2022-09-20T05:16:58.349Z,12.31
2022-09-20T05:20:01.595Z,12.35
2022-09-20T05:22:34.871Z,12.37
2022-09-20T05:25:01.886Z,12.33
2022-09-20T05:27:41.162Z,12.45
2022-09-20T05:30:23.417Z,12.45
2022-09-20T05:33:27.355Z,12.64
2022-09-20T05:36:17.795Z,12.66
2022-09-20T05:38:52.915Z,12.82
2022-09-20T05:41:23.917Z,12.97
2022-09-20T05:44:08.783Z,12.99
2022-09-20T05:47:02.224Z,13.07
2022-09-20T05:50:06.402Z,13.12
2022-09-20T05:52:43.286Z,13.05
2022-09-20T05:55:51.884Z,13.02
2022-09-20T05:58:28.089Z,13.12
2022-09-20T06:01:30.665Z,13.20
2022-09-20T06:04:19.661Z,13.27
2022-09-20T06:07:23.732Z,13.32
2022-09-20T06:10:13.431Z,13.47
2022-09-20T06:13:02.828Z,13.49
2022-09-20T06:15:41.285Z,13.64
2022-09-20T06:18:26.508Z,13.76
2022-09-20T06:21:36.272Z,13.83
2022-09-20T06:24:13.458Z,13.98
2022-09-20T06:26:44.613Z,14.09
2022-09-20T06:29:14.966Z,14.19
2022-09-20T06:31:42.132Z,14.20
2022-09-20T06:34:13.534Z,14.26
2022-09-20T06:37:05.570Z,14.28
2022-09-20T06:40:13.242Z,14.35
2022-09-20T06:42:40.351Z,14.32
2022-09-20T06:45:07.739Z,14.48
2022-09-20T06:47:38.627Z,14.56
2022-09-20T06:50:07.163Z,14.72
2022-09-20T06:52:35.664Z,14.81
2022-09-20T06:55:07.534Z,14.85
2022-09-20T06:57:38.044Z,14.96
2022-09-20T07:00:07.040Z,14.84
2022-09-20T07:02:34.290Z,14.98
2022-09-20T07:05:01.407Z,15.02
2022-09-20T07:07:28.680Z,15.13
2022-09-20T07:09:55.797Z,15.18
2022-09-20T07:12:22.881Z,15.28
2022-09-20T07:14:50.702Z,15.43
2022-09-20T07:17:17.824Z,15.49
2022-09-20T07:19:44.932Z,15.60
2022-09-20T07:22:12.030Z,15.74
2022-09-20T07:24:40.622Z,15.80
2022-09-20T07:27:07.813Z,15.83
2022-09-20T07:29:35.479Z,15.91
2022-09-20T07:32:02.827Z,16.01
2022-09-20T07:34:30.006Z,16.12
2022-09-20T07:36:57.445Z,16.09
2022-09-20T07:39:24.518Z,16.13
2022-09-20T07:41:51.578Z,16.24
2022-09-20T07:44:24.446Z,16.28
2022-09-20T07:46:53.377Z,16.24
2022-09-20T07:49:22.061Z,16.39
2022-09-20T07:51:50.334Z,16.51
2022-09-20T07:54:17.939Z,16.63
2022-09-20T07:56:45.282Z,16.63
2022-09-20T07:59:13.799Z,16.67
2022-09-20T08:01:42.032Z,16.64
2022-09-20T08:04:10.459Z,16.71
2022-09-20T08:06:39.923Z,16.78
2022-09-20T08:09:11.177Z,16.76
2022-09-20T08:11:40.146Z,16.75
2022-09-20T08:14:09.155Z,16.75
2022-09-20T08:16:42.997Z,16.77
2022-09-20T08:19:19.139Z,16.98
2022-09-20T08:21:46.722Z,17.12
2022-09-20T08:24:14.291Z,17.21
2022-09-20T08:26:41.670Z,17.36
2022-09-20T08:29:08.928Z,17.45
2022-09-20T08:31:40.324Z,17.44
2022-09-20T08:34:10.058Z,17.52
2022-09-20T08:36:41.381Z,17.56
2022-09-20T08:42:06.004Z,17.23
2022-09-20T08:44:45.432Z,17.19
2022-09-20T08:47:24.031Z,17.13
2022-09-20T08:49:56.889Z,17.31
2022-09-20T08:52:37.062Z,17.47
2022-09-20T08:55:16.973Z,17.56
2022-09-20T08:57:49.186Z,17.68
2022-09-20T09:00:22.711Z,17.54
2022-09-20T09:02:56.720Z,17.67
2022-09-20T09:05:53.314Z,17.60
2022-09-20T09:08:37.697Z,17.65
2022-09-20T09:11:11.273Z,17.67
2022-09-20T09:14:01.991Z,17.74
2022-09-20T09:16:35.228Z,17.71
2022-09-20T09:19:21.244Z,17.81
2022-09-20T09:21:48.334Z,17.77
2022-09-20T09:24:20.607Z,17.62
2022-09-20T09:26:48.767Z,17.70
2022-09-20T09:29:21.808Z,17.76
2022-09-20T09:31:54.813Z,17.84
2022-09-20T09:34:29.132Z,17.98
2022-09-20T09:36:57.338Z,18.14
2022-09-20T09:39:35.552Z,18.29
2022-09-20T09:42:25.941Z,18.25
2022-09-20T09:44:53.422Z,18.30
2022-09-20T09:47:31.239Z,18.20
2022-09-20T09:50:03.743Z,18.36
2022-09-20T09:52:34.685Z,18.39
2022-09-20T09:55:05.856Z,18.16
2022-09-20T09:57:54.217Z,18.35
2022-09-20T10:00:23.700Z,18.35
2022-09-20T10:03:13.303Z,18.11
2022-09-20T10:05:58.896Z,18.19
2022-09-20T10:08:57.183Z,18.27
2022-09-20T10:11:32.099Z,18.18
2022-09-20T10:14:17.870Z,18.18
2022-09-20T10:16:57.084Z,18.16
2022-09-20T10:20:02.301Z,18.11
2022-09-20T10:23:00.294Z,18.13
2022-09-20T10:25:55.146Z,18.12
2022-09-20T10:28:48.620Z,18.03
2022-09-20T10:31:41.776Z,17.96
2022-09-20T10:34:40.000Z,18.09
2022-09-20T10:37:33.971Z,18.16
2022-09-20T10:40:16.715Z,18.23
2022-09-20T10:43:08.835Z,18.05
2022-09-20T10:46:20.944Z,18.00
2022-09-20T10:48:53.135Z,18.11
2022-09-20T10:51:48.491Z,18.18
2022-09-20T10:54:52.968Z,18.27
2022-09-20T10:57:42.105Z,18.32
2022-09-20T11:00:42.290Z,18.09
2022-09-20T11:03:30.102Z,18.13
2022-09-20T11:06:20.200Z,18.18
2022-09-20T11:08:54.240Z,18.27
2022-09-20T11:11:35.774Z,18.37
2022-09-20T11:14:06.303Z,18.38
2022-09-20T11:16:42.015Z,18.30
2022-09-20T11:19:31.505Z,18.29
2022-09-20T11:22:07.887Z,18.16
2022-09-20T11:24:42.249Z,18.04
2022-09-20T11:27:20.990Z,18.01
2022-09-20T11:30:03.758Z,18.00
2022-09-20T11:32:39.538Z,18.00
2022-09-20T11:35:14.804Z,18.18
2022-09-20T11:37:57.400Z,18.27
2022-09-20T11:40:53.797Z,18.33
2022-09-20T11:43:22.607Z,18.11
2022-09-20T11:45:55.666Z,18.10
2022-09-20T11:48:31.465Z,18.05
2022-09-20T11:51:25.910Z,17.88
2022-09-20T11:54:08.170Z,17.89
2022-09-20T11:56:35.477Z,17.83
2022-09-20T11:59:05.771Z,17.83
2022-09-20T12:01:42.749Z,17.89
2022-09-20T12:04:34.773Z,17.95
2022-09-20T12:07:19.868Z,18.06
2022-09-20T12:10:01.466Z,18.12
2022-09-20T12:12:35.534Z,18.26
2022-09-20T12:15:07.070Z,18.37
2022-09-20T12:17:57.522Z,18.51
2022-09-20T12:20:38.731Z,18.53
2022-09-20T12:23:41.268Z,18.33
2022-09-20T12:26:32.919Z,18.26
2022-09-20T12:29:02.681Z,18.32
2022-09-20T12:31:31.819Z,18.37
2022-09-20T12:34:10.890Z,18.32
2022-09-20T12:36:43.247Z,18.38
2022-09-20T12:39:11.147Z,18.41
2022-09-20T12:42:03.541Z,18.44
2022-09-20T12:44:40.318Z,18.38
2022-09-20T12:47:10.572Z,18.29
2022-09-20T12:50:08.742Z,18.38
2022-09-20T12:52:50.893Z,18.37
2022-09-20T12:55:33.643Z,18.52
2022-09-20T12:58:12.793Z,18.48
2022-09-20T13:01:14.301Z,18.63
2022-09-20T13:03:50.139Z,18.72
2022-09-20T13:06:20.276Z,18.91
2022-09-20T13:08:50.227Z,18.92
2022-09-20T13:11:23.614Z,18.70
2022-09-20T13:14:07.191Z,18.77
2022-09-20T13:16:37.565Z,18.84
2022-09-20T13:19:07.381Z,18.84
2022-09-20T13:21:38.642Z,18.84
2022-09-20T13:24:08.028Z,18.90
2022-09-20T13:26:44.968Z,18.98
2022-09-20T13:29:27.569Z,19.13
2022-09-20T13:31:56.582Z,19.24
2022-09-20T13:34:26.018Z,19.21
2022-09-20T13:36:58.359Z,19.17
2022-09-20T13:39:36.281Z,19.20
2022-09-20T13:42:14.876Z,19.39
2022-09-20T13:44:43.651Z,19.29
2022-09-20T13:47:26.823Z,19.45
2022-09-20T13:50:00.536Z,19.41
2022-09-20T13:52:30.751Z,19.63
2022-09-20T13:54:57.876Z,19.64
2022-09-20T13:57:28.719Z,19.60
2022-09-20T13:59:58.025Z,19.65
2022-09-20T14:02:32.520Z,19.56
2022-09-20T14:05:03.779Z,19.50
2022-09-20T14:07:32.516Z,19.60
2022-09-20T14:10:00.337Z,19.69
2022-09-20T14:12:28.077Z,19.72
2022-09-20T14:14:55.783Z,19.87
2022-09-20T14:17:24.741Z,19.75
2022-09-20T14:19:54.837Z,19.79
2022-09-20T14:22:27.798Z,19.84
2022-09-20T14:25:02.012Z,19.71
2022-09-20T14:27:31.482Z,19.82
2022-09-20T14:29:59.001Z,19.83
2022-09-20T14:32:44.559Z,19.69
2022-09-20T14:35:18.755Z,19.80
2022-09-20T14:37:50.128Z,19.91
2022-09-20T14:40:20.603Z,20.03
2022-09-20T14:42:51.692Z,19.86
2022-09-20T14:45:37.043Z,19.85
2022-09-20T14:48:11.176Z,19.85
2022-09-20T14:51:06.331Z,19.85
2022-09-20T14:53:37.200Z,19.92
2022-09-20T14:56:04.167Z,19.70
2022-09-20T14:58:31.796Z,19.68
2022-09-20T15:01:22.790Z,19.60
2022-09-20T15:03:50.494Z,19.54
2022-09-20T15:06:17.776Z,19.67
2022-09-20T15:08:46.687Z,19.50
2022-09-20T15:11:15.458Z,19.28
2022-09-20T15:13:42.786Z,19.19
2022-09-20T15:16:13.551Z,19.11
2022-09-20T15:18:43.064Z,19.17
2022-09-20T15:21:11.035Z,19.26
2022-09-20T15:23:39.471Z,19.26
2022-09-20T15:28:35.061Z,19.19
2022-09-20T15:31:02.624Z,19.13
2022-09-20T15:33:32.288Z,19.20
2022-09-20T15:36:02.265Z,19.16
2022-09-20T15:38:29.526Z,19.19
2022-09-20T15:40:59.680Z,19.16
2022-09-20T15:43:28.107Z,19.21
2022-09-20T15:46:00.379Z,19.04
2022-09-20T15:48:30.029Z,19.07
2022-09-20T15:51:07.662Z,18.88
2022-09-20T15:53:38.466Z,18.91
2022-09-20T15:56:16.214Z,18.86
2022-09-20T15:58:51.862Z,18.82
2022-09-20T16:01:19.619Z,18.66
2022-09-20T16:03:47.094Z,18.66
2022-09-20T16:06:14.433Z,18.78
2022-09-20T16:08:42.947Z,18.90
2022-09-20T16:11:13.818Z,18.73
2022-09-20T16:13:41.027Z,18.53
2022-09-20T16:16:13.087Z,18.39
2022-09-20T16:18:58.668Z,18.16
2022-09-20T16:21:25.948Z,18.16
2022-09-20T16:23:56.191Z,18.29
2022-09-20T16:26:25.991Z,18.16
2022-09-20T16:28:54.496Z,18.05
2022-09-20T16:31:41.704Z,18.06
2022-09-20T16:34:32.013Z,17.88
2022-09-20T16:37:04.279Z,17.70
2022-09-20T16:39:32.295Z,17.72
2022-09-20T16:42:07.555Z,17.72
2022-09-20T16:44:36.744Z,17.79
2022-09-20T16:47:08.998Z,17.71
2022-09-20T16:49:37.319Z,17.73
2022-09-20T16:52:05.280Z,17.56
2022-09-20T16:54:33.878Z,17.51
2022-09-20T16:57:01.650Z,17.42
2022-09-20T16:59:29.099Z,17.45
2022-09-20T17:01:56.193Z,17.31
2022-09-20T17:04:23.462Z,17.47
2022-09-20T17:06:51.915Z,17.34
2022-09-20T17:09:19.691Z,17.35
2022-09-20T17:11:50.251Z,17.43
2022-09-20T17:14:19.806Z,17.48
2022-09-20T17:16:48.193Z,17.31
2022-09-20T17:19:18.746Z,17.07
2022-09-20T17:21:50.539Z,17.05
2022-09-20T17:24:19.383Z,17.14
2022-09-20T17:26:46.641Z,17.00
2022-09-20T17:29:17.046Z,17.11
2022-09-20T17:31:54.486Z,16.97
2022-09-20T17:34:22.390Z,16.82
2022-09-20T17:36:50.938Z,16.86
2022-09-20T17:39:18.532Z,16.86
2022-09-20T17:41:47.811Z,16.91
2022-09-20T17:44:15.963Z,16.97
2022-09-20T17:46:45.244Z,17.07
2022-09-20T17:49:14.696Z,17.09
2022-09-20T17:51:47.343Z,17.07
2022-09-20T17:54:14.587Z,17.01
2022-09-20T17:56:47.222Z,17.01
2022-09-20T17:59:16.291Z,17.04
2022-09-20T18:01:45.199Z,17.07
2022-09-20T18:04:13.196Z,17.11
2022-09-20T18:06:47.580Z,17.02
2022-09-20T18:09:16.829Z,17.05
2022-09-20T18:11:48.762Z,16.88
2022-09-20T18:14:18.238Z,16.77
2022-09-20T18:16:45.479Z,16.63
2022-09-20T18:19:14.249Z,16.73
2022-09-20T18:21:41.416Z,16.54
2022-09-20T18:24:10.243Z,16.56
2022-09-20T18:26:39.126Z,16.48
2022-09-20T18:29:12.565Z,16.40
2022-09-20T18:31:43.389Z,15.94
2022-09-20T18:34:21.703Z,15.95
2022-09-20T18:36:55.207Z,15.75
2022-09-20T18:39:33.293Z,15.72
2022-09-20T18:42:01.396Z,15.54
2022-09-20T18:44:33.694Z,15.45
2022-09-20T18:47:02.782Z,15.49
2022-09-20T18:49:30.714Z,15.61
2022-09-20T18:51:58.060Z,15.61
2022-09-20T18:54:25.182Z,15.71
2022-09-20T18:56:52.589Z,15.69
2022-09-20T18:59:22.303Z,15.65
2022-09-20T19:01:55.986Z,15.77
2022-09-20T19:04:39.802Z,15.84
2022-09-20T19:07:28.352Z,15.60
2022-09-20T19:10:46.683Z,15.61
2022-09-20T19:13:35.943Z,15.65
2022-09-20T19:16:30.677Z,15.49
2022-09-20T19:19:22.917Z,15.63
2022-09-20T19:22:08.296Z,15.67
2022-09-20T19:25:12.581Z,15.66
2022-09-20T19:27:39.973Z,15.45
2022-09-20T19:30:07.993Z,15.19
2022-09-20T19:32:35.710Z,15.00
2022-09-20T19:35:04.063Z,14.72
2022-09-20T19:38:04.320Z,14.42
2022-09-20T19:40:48.844Z,14.23
2022-09-20T19:43:24.527Z,14.32
2022-09-20T19:45:52.900Z,14.36
2022-09-20T19:48:37.142Z,14.42
2022-09-20T19:51:08.195Z,14.35
2022-09-20T19:53:35.908Z,14.50
2022-09-20T19:56:21.409Z,14.64
2022-09-20T19:58:53.029Z,14.57
2022-09-20T20:01:22.776Z,14.72
2022-09-20T20:03:51.492Z,14.77
2022-09-20T20:06:36.943Z,14.61
2022-09-20T20:09:14.130Z,14.36
2022-09-20T20:11:52.497Z,14.38
2022-09-20T20:14:51.800Z,14.44
2022-09-20T20:17:43.774Z,14.36
2022-09-20T20:20:38.399Z,14.40
2022-09-20T20:23:36.916Z,14.46
2022-09-20T20:26:13.459Z,14.48
2022-09-20T20:28:40.657Z,14.34
2022-09-20T20:31:12.357Z,14.28
2022-09-20T20:33:39.711Z,14.32
2022-09-20T20:36:11.779Z,14.18
2022-09-20T20:38:41.773Z,14.38
2022-09-20T20:41:14.119Z,14.44
2022-09-20T20:43:43.299Z,14.32
2022-09-20T20:46:14.242Z,14.33
2022-09-20T20:48:42.482Z,14.18
2022-09-20T20:51:10.995Z,14.16
2022-09-20T20:53:47.089Z,14.18
2022-09-20T20:56:19.656Z,14.24
2022-09-20T20:58:47.995Z,14.05
2022-09-20T21:01:29.957Z,14.09
2022-09-20T21:03:58.771Z,14.06
2022-09-20T21:06:31.979Z,14.01
2022-09-20T21:08:59.705Z,14.05
2022-09-20T21:11:29.319Z,14.06
2022-09-20T21:13:58.559Z,13.92
2022-09-20T21:16:29.641Z,13.94
2022-09-20T21:18:57.967Z,13.93
2022-09-20T21:21:29.080Z,13.77
2022-09-20T21:23:58.027Z,13.58
2022-09-20T21:26:27.789Z,13.58
2022-09-20T21:29:00.240Z,13.50
2022-09-20T21:31:30.325Z,13.39
2022-09-20T21:33:57.793Z,13.35
2022-09-20T21:36:28.197Z,13.10
2022-09-20T21:38:56.099Z,12.87
2022-09-20T21:41:26.155Z,12.89
2022-09-20T21:43:55.675Z,12.85
2022-09-20T21:46:28.448Z,12.75
2022-09-20T21:49:01.343Z,12.84
2022-09-20T21:51:31.211Z,12.80
2022-09-20T21:53:59.726Z,12.72
2022-09-20T21:56:29.682Z,12.82
2022-09-20T21:58:58.483Z,12.79
2022-09-20T22:01:27.859Z,12.82
2022-09-20T22:03:59.188Z,12.93
2022-09-20T22:06:29.305Z,13.01
2022-09-20T22:08:58.596Z,12.99
2022-09-20T22:11:29.610Z,13.05
2022-09-20T22:13:57.535Z,13.16
2022-09-20T22:16:28.675Z,13.28
2022-09-20T22:18:57.567Z,13.28
2022-09-20T22:21:27.977Z,13.37
2022-09-20T22:23:57.768Z,13.47
2022-09-20T22:26:27.959Z,13.57
2022-09-20T22:28:55.212Z,13.67
2022-09-20T22:31:32.732Z,13.58
2022-09-20T22:34:02.364Z,13.56
2022-09-20T22:36:32.737Z,13.58
2022-09-20T22:39:00.116Z,13.66
2022-09-20T22:41:30.385Z,13.66
2022-09-20T22:43:57.529Z,13.59
2022-09-20T22:46:27.163Z,13.63
2022-09-20T22:48:54.826Z,13.65
2022-09-20T22:51:24.727Z,13.69
2022-09-20T22:53:52.837Z,13.69
2022-09-20T22:56:22.592Z,13.73
2022-09-20T22:58:51.902Z,13.77
2022-09-20T23:01:27.436Z,13.75
2022-09-20T23:04:16.679Z,13.80
2022-09-20T23:06:54.630Z,13.73
2022-09-20T23:09:24.283Z,13.77
2022-09-20T23:11:51.450Z,13.67
2022-09-20T23:14:20.514Z,13.69
2022-09-20T23:16:48.427Z,13.77
2022-09-20T23:19:16.352Z,13.83
2022-09-20T23:21:44.533Z,13.85
2022-09-20T23:24:13.308Z,13.79
2022-09-20T23:26:41.764Z,13.80
2022-09-20T23:29:11.416Z,13.74
2022-09-20T23:31:40.515Z,13.71
2022-09-20T23:34:08.930Z,13.75
2022-09-20T23:36:39.803Z,13.75
2022-09-20T23:39:08.694Z,13.63
2022-09-20T23:41:36.869Z,13.74
2022-09-20T23:44:06.736Z,13.69
2022-09-20T23:46:34.414Z,13.72
2022-09-20T23:49:02.386Z,13.64
2022-09-20T23:51:30.783Z,13.55
2022-09-20T23:53:58.115Z,13.60
2022-09-20T23:56:25.342Z,13.62
2022-09-20T23:58:52.487Z,13.65
